Time;durP1;ratioP1;P1;durP2;ratioP2;P2;SDS_P1;SDS_P2;PMS_P1;PMS_P2;Temp;Humidity;BMP_temperature;BMP_pressure;BME280_temperature;BME280_humidity;BME280_pressure;Samples;Min_cycle;Max_cycle;Signal;HPM_P1;HPM_P2
2022/07/29 00:00:44;;;;;;;3.05;1.40;;;14.00;99.90;;;;;;6172715;23;20009;-77
2022/07/29 00:03:11;;;;;;;5.32;1.40;;;14.00;99.90;;;;;;6198441;23;20111;-78
2022/07/29 00:05:39;;;;;;;5.00;1.80;;;14.00;99.90;;;;;;6146760;23;20134;-77
2022/07/29 00:08:05;;;;;;;2.50;1.20;;;14.00;99.90;;;;;;6197632;23;20039;-81
2022/07/29 00:10:31;;;;;;;3.72;1.50;;;14.00;99.90;;;;;;6148250;23;20016;-80
2022/07/29 00:12:57;;;;;;;3.42;1.60;;;14.00;99.90;;;;;;6173089;23;20058;-79
2022/07/29 00:15:25;;;;;;;3.72;1.60;;;14.00;99.90;;;;;;6124067;23;20079;-80
2022/07/29 00:17:51;;;;;;;2.78;1.55;;;14.00;99.90;;;;;;6173109;23;20203;-80
2022/07/29 00:20:17;;;;;;;2.97;1.45;;;14.00;99.90;;;;;;6148213;23;20069;-80
2022/07/29 00:22:42;;;;;;;4.35;2.85;;;14.20;99.90;;;;;;6173806;23;20036;-77
2022/07/29 00:25:08;;;;;;;2.60;1.38;;;14.20;99.90;;;;;;6196177;23;20226;-78
2022/07/29 00:27:35;;;;;;;4.10;1.60;;;14.20;99.90;;;;;;6149927;23;20020;-80
2022/07/29 00:30:04;;;;;;;3.83;1.60;;;14.30;99.90;;;;;;6174295;23;20019;-79
2022/07/29 00:32:29;;;;;;;4.97;1.40;;;14.30;99.90;;;;;;6198024;23;20300;-79
2022/07/29 00:37:39;;;;;;;3.88;1.73;;;14.40;99.90;;;;;;6176796;23;20013;-82
2022/07/29 00:40:05;;;;;;;1.85;1.40;;;14.50;99.90;;;;;;6149182;23;20009;-81
2022/07/29 00:42:45;;;;;;;2.75;1.65;;;14.40;99.90;;;;;;6148175;23;20025;-82
2022/07/29 00:45:11;;;;;;;2.83;1.60;;;14.50;99.90;;;;;;6173111;23;20028;-77
2022/07/29 00:47:37;;;;;;;5.47;1.67;;;14.50;99.90;;;;;;6197958;23;20039;-79
2022/07/29 00:50:08;;;;;;;4.70;2.00;;;14.60;99.90;;;;;;6173131;23;20012;-77
2022/07/29 00:52:36;;;;;;;2.40;1.75;;;14.60;99.90;;;;;;6147766;23;20044;-79
2022/07/29 00:55:04;;;;;;;3.75;1.50;;;14.50;99.90;;;;;;6172441;23;20009;-79
2022/07/29 00:57:30;;;;;;;2.72;1.48;;;14.60;99.90;;;;;;6172925;23;20009;-77
2022/07/29 00:59:55;;;;;;;2.65;1.70;;;14.50;99.90;;;;;;6147909;23;20342;-77
2022/07/29 01:02:21;;;;;;;3.75;1.60;;;14.60;99.90;;;;;;6124876;23;20008;-81
2022/07/29 01:04:48;;;;;;;3.63;1.50;;;14.60;99.90;;;;;;6197994;23;20013;-77
2022/07/29 01:07:17;;;;;;;3.28;1.50;;;14.60;99.90;;;;;;6149213;23;20066;-81
2022/07/29 01:09:44;;;;;;;4.57;1.60;;;14.50;99.90;;;;;;6149486;23;20019;-78
2022/07/29 01:12:12;;;;;;;3.35;1.50;;;14.60;99.90;;;;;;6149328;23;20013;-83
2022/07/29 01:14:40;;;;;;;2.13;1.58;;;14.60;99.90;;;;;;6174035;23;20013;-78
2022/07/29 01:17:26;;;;;;;4.90;1.90;;;14.60;99.90;;;;;;6172242;23;20318;-78
2022/07/29 01:20:11;;;;;;;2.53;1.70;;;14.60;99.90;;;;;;6172922;23;20031;-80
2022/07/29 01:22:43;;;;;;;2.60;1.50;;;14.60;99.90;;;;;;6172477;23;20295;-78
2022/07/29 01:25:51;;;;;;;4.05;1.60;;;14.50;99.90;;;;;;6172457;23;20235;-78
2022/07/29 01:28:43;;;;;;;3.55;1.80;;;14.50;99.90;;;;;;6172824;23;20019;-79
2022/07/29 01:31:10;;;;;;;3.30;1.90;;;14.50;99.90;;;;;;6198923;23;20048;-81
2022/07/29 01:33:50;;;;;;;2.25;1.67;;;14.50;99.90;;;;;;6174033;23;20028;-80
2022/07/29 01:36:45;;;;;;;2.03;1.83;;;14.50;99.90;;;;;;6173150;23;20203;-83
2022/07/29 01:39:16;;;;;;;3.50;1.80;;;14.50;99.90;;;;;;6121865;23;20016;-82
2022/07/29 01:41:50;;;;;;;2.67;1.80;;;14.40;99.90;;;;;;6174483;23;20008;-81
2022/07/29 01:44:26;;;;;;;3.30;1.42;;;14.40;99.90;;;;;;6172722;23;20016;-80
2022/07/29 01:46:57;;;;;;;3.83;1.63;;;14.40;99.90;;;;;;6198631;23;20009;-82
2022/07/29 01:49:27;;;;;;;2.75;1.52;;;14.40;99.90;;;;;;6171975;23;20230;-79
2022/07/29 01:52:00;;;;;;;3.70;1.60;;;14.40;99.90;;;;;;6173219;23;20059;-80
2022/07/29 01:54:38;;;;;;;1.83;1.50;;;14.40;99.90;;;;;;6173319;23;20008;-82
2022/07/29 01:57:06;;;;;;;3.50;1.63;;;14.40;99.90;;;;;;6173351;23;20031;-79
2022/07/29 01:59:34;;;;;;;3.60;1.45;;;14.40;99.90;;;;;;6147934;23;20009;-80
2022/07/29 02:02:02;;;;;;;1.45;1.35;;;14.40;99.90;;;;;;6173221;23;20008;-79
2022/07/29 02:04:29;;;;;;;4.05;1.65;;;14.50;99.90;;;;;;6172921;23;20241;-80
2022/07/29 02:07:00;;;;;;;3.15;1.42;;;14.50;99.90;;;;;;6172239;23;20237;-80
2022/07/29 02:09:29;;;;;;;4.97;1.50;;;14.40;99.90;;;;;;6172088;23;20021;-81
2022/07/29 02:11:57;;;;;;;4.15;1.52;;;14.50;99.90;;;;;;6173592;23;20017;-81
2022/07/29 02:14:24;;;;;;;3.28;1.77;;;14.50;99.90;;;;;;6172447;23;20047;-81
2022/07/29 02:16:53;;;;;;;5.07;1.50;;;14.40;99.90;;;;;;6171928;23;20008;-79
2022/07/29 02:19:23;;;;;;;1.52;1.13;;;14.50;99.90;;;;;;6196199;23;20164;-80
2022/07/29 02:21:50;;;;;;;2.38;1.50;;;14.60;99.90;;;;;;6195957;23;20008;-76
2022/07/29 02:24:18;;;;;;;2.95;1.50;;;14.50;99.90;;;;;;6169824;23;20038;-78
2022/07/29 02:26:45;;;;;;;2.30;1.42;;;14.50;99.90;;;;;;6170699;23;20020;-80
2022/07/29 02:29:13;;;;;;;1.88;1.55;;;14.50;99.90;;;;;;6144222;23;20016;-78
2022/07/29 02:31:40;;;;;;;3.03;1.70;;;14.50;99.90;;;;;;6145507;23;20008;-79
2022/07/29 02:34:09;;;;;;;3.28;1.50;;;14.60;99.90;;;;;;6170692;23;20335;-78
2022/07/29 02:36:36;;;;;;;3.70;1.60;;;14.60;99.90;;;;;;6195661;23;20009;-83
2022/07/29 02:39:03;;;;;;;1.65;1.40;;;14.60;99.90;;;;;;6197517;23;20008;-82
2022/07/29 02:42:01;;;;;;;4.47;1.55;;;14.60;99.90;;;;;;6173056;23;20055;-79
2022/07/29 02:44:27;;;;;;;2.38;1.38;;;14.60;99.90;;;;;;6168932;23;20039;-78
2022/07/29 02:47:03;;;;;;;2.63;1.50;;;14.50;99.90;;;;;;6123647;23;20087;-78
2022/07/29 02:49:55;;;;;;;2.75;1.75;;;14.60;99.90;;;;;;6172344;23;20013;-80
2022/07/29 02:52:39;;;;;;;4.85;1.42;;;14.50;99.90;;;;;;6172528;23;20025;-76
2022/07/29 02:55:15;;;;;;;2.85;1.50;;;14.50;99.90;;;;;;6172018;23;20013;-79
2022/07/29 02:57:52;;;;;;;1.80;1.30;;;14.50;99.90;;;;;;6172485;23;20334;-80
2022/07/29 03:00:18;;;;;;;4.22;1.60;;;14.50;99.90;;;;;;6171395;23;20321;-78
2022/07/29 03:02:49;;;;;;;1.63;1.40;;;14.50;99.90;;;;;;6197100;23;20015;-81
2022/07/29 03:05:20;;;;;;;2.33;1.80;;;14.50;99.90;;;;;;6172406;23;20019;-79
2022/07/29 03:07:58;;;;;;;3.10;1.60;;;14.50;99.90;;;;;;6172203;23;20016;-79
2022/07/29 03:10:26;;;;;;;3.38;1.52;;;14.50;99.90;;;;;;6195903;23;20013;-80
2022/07/29 03:12:52;;;;;;;2.42;1.30;;;14.40;99.90;;;;;;6174272;23;20244;-81
2022/07/29 03:15:19;;;;;;;3.88;1.40;;;14.40;99.90;;;;;;6126160;23;20258;-81
2022/07/29 03:17:46;;;;;;;3.17;1.50;;;14.40;99.90;;;;;;6174546;23;20281;-80
2022/07/29 03:20:12;;;;;;;3.13;1.55;;;14.50;99.90;;;;;;6150362;23;20063;-80
2022/07/29 03:22:43;;;;;;;3.45;1.70;;;14.50;99.90;;;;;;6149536;23;20031;-79
2022/07/29 03:25:13;;;;;;;3.35;1.60;;;14.50;99.90;;;;;;6175420;23;20019;-80
2022/07/29 03:27:39;;;;;;;4.43;1.52;;;14.50;99.90;;;;;;6174281;23;20307;-81
2022/07/29 03:30:07;;;;;;;2.63;1.60;;;14.50;99.90;;;;;;6149653;23;20012;-81
2022/07/29 03:32:32;;;;;;;3.58;1.58;;;14.40;99.90;;;;;;6173635;23;20066;-80
2022/07/29 03:34:58;;;;;;;4.82;1.90;;;14.40;99.90;;;;;;6150169;23;20021;-80
2022/07/29 03:37:24;;;;;;;2.85;1.50;;;14.40;99.90;;;;;;6125488;23;20025;-81
2022/07/29 03:39:52;;;;;;;3.85;1.70;;;14.50;99.90;;;;;;6125022;23;20016;-81
2022/07/29 03:42:20;;;;;;;3.53;1.48;;;14.40;99.90;;;;;;6174325;23;20019;-80
2022/07/29 03:44:49;;;;;;;2.88;1.60;;;14.40;99.90;;;;;;6173913;23;20024;-81
2022/07/29 03:47:20;;;;;;;4.28;2.08;;;14.50;99.90;;;;;;6198806;23;20067;-81
2022/07/29 03:49:48;;;;;;;2.95;1.90;;;14.40;99.90;;;;;;6173779;23;20241;-81
2022/07/29 03:52:14;;;;;;;3.10;1.67;;;14.50;99.90;;;;;;6173921;23;20012;-80
2022/07/29 03:54:40;;;;;;;4.90;1.50;;;14.40;99.90;;;;;;6173111;23;20060;-80
2022/07/29 03:57:07;;;;;;;3.90;1.60;;;14.40;99.90;;;;;;6175084;23;20263;-80
2022/07/29 03:59:36;;;;;;;4.68;1.63;;;14.40;99.90;;;;;;6149816;23;20160;-81
2022/07/29 04:02:04;;;;;;;3.63;1.70;;;14.40;99.90;;;;;;6198330;23;20067;-81
2022/07/29 04:04:33;;;;;;;3.05;1.77;;;14.50;99.90;;;;;;6148328;23;20246;-80
2022/07/29 04:06:59;;;;;;;4.50;2.08;;;14.40;99.90;;;;;;6149891;23;20021;-80
2022/07/29 04:09:25;;;;;;;3.30;1.67;;;14.40;99.90;;;;;;6174028;23;20270;-80
2022/07/29 04:11:51;;;;;;;4.82;1.65;;;14.40;99.90;;;;;;6173971;23;20223;-80
2022/07/29 04:14:17;;;;;;;3.40;1.70;;;14.50;99.90;;;;;;6148828;23;20079;-79
2022/07/29 04:16:42;;;;;;;4.70;1.60;;;14.50;99.90;;;;;;6174424;23;20008;-79
2022/07/29 04:19:08;;;;;;;3.80;1.52;;;14.50;99.90;;;;;;6125189;23;20279;-81
2022/07/29 04:21:39;;;;;;;5.57;2.20;;;14.50;99.90;;;;;;6124170;23;20071;-81
2022/07/29 04:24:05;;;;;;;1.95;1.48;;;14.50;99.90;;;;;;6149602;23;20210;-81
2022/07/29 04:26:30;;;;;;;3.45;1.60;;;14.50;99.90;;;;;;6149349;23;20021;-79
2022/07/29 04:28:56;;;;;;;2.78;1.60;;;14.50;99.90;;;;;;6174038;23;20019;-80
2022/07/29 04:31:22;;;;;;;2.95;1.52;;;14.60;99.90;;;;;;6125025;23;20284;-80
2022/07/29 04:33:47;;;;;;;3.88;1.60;;;14.60;99.90;;;;;;6148757;23;20017;-83
2022/07/29 04:36:13;;;;;;;5.60;1.77;;;14.50;99.90;;;;;;6171714;23;20020;-80
2022/07/29 04:38:39;;;;;;;3.45;1.60;;;14.60;99.90;;;;;;6148762;23;20198;-80
2022/07/29 04:41:06;;;;;;;3.72;1.50;;;14.60;99.90;;;;;;6149208;23;20008;-81
2022/07/29 04:43:33;;;;;;;4.40;1.58;;;14.60;99.90;;;;;;6173510;23;20072;-81
2022/07/29 04:45:59;;;;;;;1.90;1.55;;;14.60;99.90;;;;;;6148107;23;20024;-80
2022/07/29 04:48:26;;;;;;;3.30;1.80;;;14.60;99.90;;;;;;6197892;23;20040;-79
2022/07/29 04:50:51;;;;;;;6.63;1.77;;;14.70;99.90;;;;;;6149055;23;20071;-79
2022/07/29 04:53:17;;;;;;;5.28;1.70;;;14.70;99.90;;;;;;6147775;23;20183;-81
2022/07/29 04:55:44;;;;;;;3.70;1.77;;;14.70;99.90;;;;;;6171073;23;20019;-80
2022/07/29 04:58:10;;;;;;;2.42;1.50;;;14.70;99.90;;;;;;6124579;23;20008;-79
2022/07/29 05:00:36;;;;;;;2.75;1.73;;;14.70;99.90;;;;;;6149024;23;20035;-80
2022/07/29 05:03:03;;;;;;;3.83;1.70;;;14.70;99.90;;;;;;6124390;23;20015;-81
2022/07/29 05:05:29;;;;;;;2.08;1.40;;;14.80;99.90;;;;;;6148555;23;20021;-79
2022/07/29 05:07:55;;;;;;;2.85;1.80;;;14.80;99.90;;;;;;6197166;23;20203;-79
2022/07/29 05:10:21;;;;;;;4.20;1.80;;;14.80;99.90;;;;;;6125512;23;20020;-79
2022/07/29 05:12:47;;;;;;;4.00;1.80;;;14.80;99.90;;;;;;6149663;23;20345;-79
2022/07/29 05:15:13;;;;;;;4.15;1.60;;;14.90;99.90;;;;;;6174231;23;20040;-79
2022/07/29 05:17:38;;;;;;;7.47;1.98;;;14.90;99.90;;;;;;6148633;23;20052;-78
2022/07/29 05:20:05;;;;;;;6.35;2.28;;;14.80;99.90;;;;;;6173677;23;20008;-80
2022/07/29 05:22:31;;;;;;;6.43;1.77;;;15.00;99.90;;;;;;6149569;23;20021;-78
2022/07/29 05:24:57;;;;;;;2.33;1.58;;;14.90;99.90;;;;;;6147288;23;20012;-78
2022/07/29 05:27:22;;;;;;;2.72;1.60;;;14.90;99.90;;;;;;6149258;23;20020;-80
2022/07/29 05:29:48;;;;;;;2.53;1.63;;;15.00;99.90;;;;;;6125130;23;20068;-80
2022/07/29 05:32:14;;;;;;;3.15;1.75;;;15.10;99.90;;;;;;6125610;23;20058;-79
2022/07/29 05:34:41;;;;;;;3.28;1.80;;;15.20;99.90;;;;;;6123964;23;20062;-79
2022/07/29 05:37:06;;;;;;;4.13;1.70;;;15.20;99.90;;;;;;6173256;23;20047;-78
2022/07/29 05:39:32;;;;;;;5.70;1.70;;;15.20;99.90;;;;;;6149493;23;20009;-78
2022/07/29 05:41:57;;;;;;;2.63;1.40;;;15.30;99.90;;;;;;6124306;23;20020;-80
2022/07/29 05:44:23;;;;;;;3.50;1.50;;;15.30;99.90;;;;;;6172580;23;20314;-80
2022/07/29 05:46:49;;;;;;;3.05;1.70;;;15.40;99.90;;;;;;6124841;23;20013;-79
2022/07/29 05:49:15;;;;;;;4.35;1.90;;;15.40;99.90;;;;;;6124329;23;20175;-78
2022/07/29 05:51:40;;;;;;;2.55;1.58;;;15.50;99.90;;;;;;6148510;23;20017;-78
2022/07/29 05:54:06;;;;;;;3.80;1.80;;;15.50;99.90;;;;;;6124794;23;20015;-79
2022/07/29 05:56:32;;;;;;;6.35;1.70;;;15.60;99.90;;;;;;6122358;23;20313;-80
2022/07/29 05:58:58;;;;;;;2.58;1.40;;;15.60;99.90;;;;;;6124893;23;20196;-79
2022/07/29 06:01:24;;;;;;;3.85;1.65;;;15.60;99.90;;;;;;6148930;23;20055;-80
2022/07/29 06:03:49;;;;;;;3.75;1.50;;;15.60;99.90;;;;;;6174226;23;20009;-79
2022/07/29 06:06:15;;;;;;;8.52;1.90;;;15.70;99.90;;;;;;6195951;23;20027;-79
2022/07/29 06:08:41;;;;;;;4.97;2.08;;;15.60;99.90;;;;;;6123938;23;20538;-79
2022/07/29 06:11:08;;;;;;;4.35;1.80;;;15.50;99.90;;;;;;6150620;23;20055;-78
2022/07/29 06:13:34;;;;;;;2.95;1.65;;;15.60;99.90;;;;;;6184954;23;20012;-79
2022/07/29 06:16:00;;;;;;;5.20;1.80;;;15.70;99.90;;;;;;6206231;23;20020;-77
2022/07/29 06:18:26;;;;;;;2.35;1.73;;;15.80;99.90;;;;;;6181512;23;20306;-80
2022/07/29 06:20:52;;;;;;;3.70;1.85;;;15.90;99.90;;;;;;6174247;23;20086;-79
2022/07/29 06:23:19;;;;;;;2.80;1.75;;;15.90;99.90;;;;;;6173462;23;20043;-79
2022/07/29 06:25:45;;;;;;;3.28;1.70;;;15.80;99.90;;;;;;6148376;23;20013;-78
2022/07/29 06:28:11;;;;;;;3.35;1.70;;;15.90;99.90;;;;;;6154239;23;20017;-77
2022/07/29 06:30:37;;;;;;;1.88;1.60;;;16.00;99.90;;;;;;6181719;23;20012;-77
2022/07/29 06:33:04;;;;;;;3.67;1.90;;;16.00;99.90;;;;;;6155825;23;20012;-76
2022/07/29 06:35:30;;;;;;;3.72;1.73;;;16.10;99.90;;;;;;6177670;23;20072;-78
2022/07/29 06:37:55;;;;;;;2.65;1.48;;;16.00;99.90;;;;;;6147396;23;20247;-77
2022/07/29 06:43:05;;;;;;;3.10;2.15;;;16.10;99.90;;;;;;6177309;23;20043;-78
2022/07/29 06:45:35;;;;;;;3.42;1.40;;;16.30;99.90;;;;;;6147063;23;20028;-78
2022/07/29 06:48:00;;;;;;;2.47;1.60;;;16.30;99.90;;;;;;6196940;23;20210;-78
2022/07/29 06:50:32;;;;;;;3.42;1.60;;;16.40;99.90;;;;;;6173893;23;20019;-83
2022/07/29 06:52:58;;;;;;;3.88;1.80;;;16.50;99.90;;;;;;6147376;23;20184;-79
2022/07/29 06:55:24;;;;;;;2.97;1.50;;;16.60;99.90;;;;;;6147409;23;20020;-80
2022/07/29 06:57:50;;;;;;;4.95;2.00;;;16.60;99.90;;;;;;6122268;23;20015;-78
2022/07/29 07:00:16;;;;;;;4.60;1.75;;;16.60;99.90;;;;;;6147107;23;20016;-80
2022/07/29 07:02:45;;;;;;;3.00;1.40;;;16.80;99.90;;;;;;6171289;23;20299;-78
2022/07/29 07:05:10;;;;;;;3.60;1.73;;;16.90;99.90;;;;;;6146627;23;20017;-79
2022/07/29 07:07:36;;;;;;;3.17;1.70;;;17.00;99.90;;;;;;6170591;23;20012;-78
2022/07/29 07:10:02;;;;;;;2.25;1.50;;;17.10;99.90;;;;;;6147487;23;20294;-78
2022/07/29 07:12:29;;;;;;;3.70;1.70;;;17.10;99.90;;;;;;6146964;23;20369;-78
2022/07/29 07:14:55;;;;;;;3.88;1.73;;;17.30;99.90;;;;;;6170766;23;20079;-78
2022/07/29 07:17:21;;;;;;;2.55;1.65;;;17.20;99.90;;;;;;6170664;23;20016;-81
2022/07/29 07:19:47;;;;;;;4.78;1.92;;;17.20;99.90;;;;;;6171817;23;20008;-80
2022/07/29 07:22:13;;;;;;;5.00;2.13;;;17.10;99.90;;;;;;6196270;23;20076;-81
2022/07/29 07:24:38;;;;;;;5.15;2.20;;;17.10;99.90;;;;;;6171715;23;20019;-77
2022/07/29 07:27:04;;;;;;;3.72;1.95;;;17.00;99.90;;;;;;6145822;23;20179;-78
2022/07/29 07:29:30;;;;;;;3.38;1.70;;;17.00;99.90;;;;;;6144298;23;20190;-78
2022/07/29 07:31:57;;;;;;;5.43;1.92;;;17.10;99.90;;;;;;6146280;23;20012;-78
2022/07/29 07:34:22;;;;;;;4.22;1.73;;;17.10;99.90;;;;;;6173016;23;20012;-79
2022/07/29 07:36:48;;;;;;;3.75;1.80;;;17.10;99.90;;;;;;6123966;23;20014;-80
2022/07/29 07:39:14;;;;;;;2.47;1.65;;;17.10;99.90;;;;;;6170733;23;20245;-82
2022/07/29 07:41:42;;;;;;;3.88;1.80;;;17.10;99.90;;;;;;6172496;23;20009;-79
2022/07/29 07:44:08;;;;;;;3.30;1.90;;;17.20;99.90;;;;;;6166784;23;20021;-80
2022/07/29 07:46:34;;;;;;;3.65;1.80;;;17.20;99.90;;;;;;6167989;23;20016;-79
2022/07/29 07:48:59;;;;;;;3.67;1.88;;;16.80;99.90;;;;;;6190436;23;20012;-79
2022/07/29 07:51:27;;;;;;;4.90;1.90;;;17.20;99.90;;;;;;6143354;23;20211;-81
2022/07/29 07:53:53;;;;;;;4.85;2.17;;;17.20;99.90;;;;;;6166207;23;20203;-80
2022/07/29 07:56:19;;;;;;;4.90;2.20;;;17.20;99.90;;;;;;6143751;23;20036;-80
2022/07/29 07:58:47;;;;;;;2.78;1.77;;;17.30;99.90;;;;;;6166625;23;20024;-79
2022/07/29 08:01:13;;;;;;;4.32;1.85;;;17.40;99.90;;;;;;6168460;23;20008;-79
2022/07/29 08:03:38;;;;;;;4.97;1.70;;;17.50;99.90;;;;;;6144325;23;20012;-80
2022/07/29 08:06:05;;;;;;;7.13;2.15;;;17.50;99.90;;;;;;6193754;23;20021;-80
2022/07/29 08:08:31;;;;;;;5.80;2.45;;;17.60;99.90;;;;;;6168438;23;20013;-79
2022/07/29 08:10:56;;;;;;;2.60;1.80;;;17.70;99.90;;;;;;6191879;23;20017;-80
2022/07/29 08:13:25;;;;;;;3.97;1.90;;;17.80;99.90;;;;;;6168151;23;20112;-81
2022/07/29 08:15:57;;;;;;;2.30;1.75;;;17.60;99.90;;;;;;6193344;23;20017;-80
2022/07/29 08:18:24;;;;;;;4.63;2.20;;;17.70;99.90;;;;;;6145054;23;20326;-80
2022/07/29 08:20:50;;;;;;;5.40;2.17;;;17.80;99.90;;;;;;6167713;23;20009;-79
2022/07/29 08:23:16;;;;;;;4.78;2.25;;;17.90;99.90;;;;;;6143681;23;20016;-80
2022/07/29 08:25:42;;;;;;;3.03;1.80;;;18.00;99.90;;;;;;6193705;23;20013;-80
2022/07/29 08:28:08;;;;;;;2.63;2.05;;;18.10;99.90;;;;;;6167754;23;20021;-80
2022/07/29 08:30:35;;;;;;;3.78;2.25;;;18.20;99.90;;;;;;6167582;23;20017;-80
2022/07/29 08:33:01;;;;;;;3.03;1.85;;;17.90;99.90;;;;;;6167074;23;20017;-80
2022/07/29 08:35:27;;;;;;;3.80;2.10;;;18.10;99.90;;;;;;6167011;23;20013;-81
2022/07/29 08:37:53;;;;;;;3.15;2.22;;;18.10;99.90;;;;;;6166747;23;20005;-78
2022/07/29 08:40:25;;;;;;;3.90;1.92;;;18.10;99.90;;;;;;6191913;23;20123;-79
2022/07/29 08:42:51;;;;;;;4.43;1.85;;;18.20;99.90;;;;;;6167075;23;20374;-79
2022/07/29 08:45:17;;;;;;;3.70;2.10;;;18.30;99.90;;;;;;6168253;23;20319;-79
2022/07/29 08:47:46;;;;;;;2.15;1.88;;;18.30;99.90;;;;;;6167345;23;20016;-79
2022/07/29 08:50:12;;;;;;;6.57;2.20;;;18.00;99.90;;;;;;6167502;23;20013;-77
2022/07/29 08:52:44;;;;;;;3.13;2.08;;;18.00;99.90;;;;;;6190801;23;20028;-79
2022/07/29 08:55:10;;;;;;;4.07;2.10;;;17.80;99.90;;;;;;6166785;23;20020;-79
2022/07/29 08:57:39;;;;;;;5.10;2.35;;;17.90;99.90;;;;;;6167969;23;20009;-79
2022/07/29 09:00:08;;;;;;;3.45;2.30;;;18.00;99.90;;;;;;6190444;23;20065;-79
2022/07/29 09:02:41;;;;;;;3.47;1.95;;;17.90;99.90;;;;;;6169041;23;20017;-79
2022/07/29 09:05:07;;;;;;;3.47;2.03;;;18.10;99.90;;;;;;6167058;23;20047;-79
2022/07/29 09:07:34;;;;;;;6.43;2.20;;;18.20;99.90;;;;;;6193197;23;20051;-80
2022/07/29 09:10:01;;;;;;;3.53;1.90;;;18.30;99.90;;;;;;6143248;23;20060;-79
2022/07/29 09:12:29;;;;;;;2.53;2.10;;;18.00;99.90;;;;;;6143958;23;20019;-79
2022/07/29 09:14:54;;;;;;;2.72;2.00;;;18.10;99.90;;;;;;6167617;23;20029;-78
2022/07/29 09:17:43;;;;;;;3.60;2.15;;;18.20;99.90;;;;;;6167912;23;20023;-78
2022/07/29 09:20:21;;;;;;;2.53;1.95;;;18.10;99.90;;;;;;6166752;23;20064;-80
2022/07/29 09:22:49;;;;;;;3.95;2.08;;;18.40;99.90;;;;;;6142654;23;20015;-80
2022/07/29 09:25:33;;;;;;;3.47;2.38;;;18.40;99.90;;;;;;6168745;23;20020;-81
2022/07/29 09:28:10;;;;;;;;;;;18.50;99.90;;;;;;6167710;23;20302;-82
2022/07/29 09:30:54;;;;;;;4.80;2.30;;;18.60;99.90;;;;;;6168163;23;19916;-79
2022/07/29 09:33:30;;;;;;;4.22;2.13;;;18.10;99.90;;;;;;6147334;23;20012;-80
2022/07/29 09:36:04;;;;;;;2.60;2.10;;;18.30;99.90;;;;;;6168738;23;20195;-81
2022/07/29 09:38:33;;;;;;;5.10;2.20;;;18.50;99.90;;;;;;6143748;23;20341;-81
2022/07/29 09:41:04;;;;;;;3.95;2.00;;;18.30;99.90;;;;;;6192113;23;20016;-82
2022/07/29 09:43:31;;;;;;;3.85;1.98;;;18.10;99.90;;;;;;6167837;23;20019;-81
2022/07/29 09:46:12;;;;;;;4.88;2.10;;;18.30;99.90;;;;;;6118673;23;20072;-80
2022/07/29 09:48:38;;;;;;;3.45;1.92;;;18.30;99.90;;;;;;6168187;23;20013;-80
2022/07/29 09:51:05;;;;;;;4.88;2.42;;;18.40;99.90;;;;;;6141837;23;21015;-79
2022/07/29 09:53:32;;;;;;;5.28;2.55;;;18.50;99.90;;;;;;6143992;23;20260;-79
2022/07/29 09:55:58;;;;;;;3.10;2.15;;;18.20;99.90;;;;;;6167942;23;20013;-80
2022/07/29 09:58:24;;;;;;;4.28;2.08;;;18.40;99.90;;;;;;6167177;23;20016;-80
2022/07/29 10:00:51;;;;;;;5.18;2.42;;;18.60;99.90;;;;;;6189926;23;20223;-80
2022/07/29 10:03:18;;;;;;;5.78;2.50;;;18.20;99.90;;;;;;6143825;23;20064;-79
2022/07/29 10:05:45;;;;;;;5.85;2.55;;;18.20;99.90;;;;;;6143406;23;20009;-79
2022/07/29 10:08:12;;;;;;;5.90;2.53;;;18.20;99.90;;;;;;6143926;23;20286;-80
2022/07/29 10:10:41;;;;;;;3.90;2.50;;;18.20;99.90;;;;;;6191861;23;20064;-79
2022/07/29 10:13:12;;;;;;;4.32;2.47;;;18.30;99.90;;;;;;6191933;23;20012;-80
2022/07/29 10:15:40;;;;;;;3.78;2.30;;;18.30;99.90;;;;;;6168226;23;20013;-81
2022/07/29 10:18:11;;;;;;;3.70;2.45;;;18.50;99.90;;;;;;6167484;23;20005;-80
2022/07/29 10:20:38;;;;;;;3.88;2.13;;;18.60;99.90;;;;;;6166002;23;20311;-79
2022/07/29 10:23:11;;;;;;;7.28;2.30;;;18.60;99.90;;;;;;6188535;23;20027;-80
2022/07/29 10:25:37;;;;;;;4.60;2.60;;;18.80;99.90;;;;;;6166126;23;20073;-80
2022/07/29 10:28:05;;;;;;;3.10;2.35;;;19.00;99.90;;;;;;6164382;23;20175;-78
2022/07/29 10:30:31;;;;;;;6.93;2.28;;;18.70;99.90;;;;;;6164958;23;20059;-78
2022/07/29 10:33:18;;;;;;;3.30;2.55;;;19.00;99.90;;;;;;6164647;23;20020;-76
2022/07/29 10:36:12;;;;;;;4.63;2.40;;;18.80;99.90;;;;;;6189284;23;20020;-78
2022/07/29 10:38:46;;;;;;;4.63;2.30;;;18.70;99.90;;;;;;6164396;23;20131;-78
2022/07/29 10:41:34;;;;;;;4.25;2.70;;;18.90;99.90;;;;;;6163137;23;20224;-79
2022/07/29 10:44:03;;;;;;;4.30;2.63;;;18.80;99.90;;;;;;6188309;23;20029;-77
2022/07/29 10:46:37;;;;;;;5.88;2.53;;;18.90;99.90;;;;;;6164873;23;20017;-78
2022/07/29 10:49:22;;;;;;;5.00;2.50;;;19.00;99.90;;;;;;6188112;23;20021;-77
2022/07/29 10:51:59;;;;;;;7.90;2.60;;;19.00;99.90;;;;;;6187840;23;20028;-78
2022/07/29 10:54:37;;;;;;;5.80;2.63;;;19.00;99.90;;;;;;6162969;23;20031;-78
2022/07/29 10:57:29;;;;;;;4.35;2.40;;;19.00;99.90;;;;;;6164055;23;20212;-77
2022/07/29 11:00:04;;;;;;;5.18;2.47;;;19.20;99.90;;;;;;6187865;23;20087;-78
2022/07/29 11:02:35;;;;;;;3.75;2.33;;;19.20;99.90;;;;;;6188879;23;20060;-75
2022/07/29 11:05:04;;;;;;;4.88;2.20;;;19.10;99.90;;;;;;6162655;23;20072;-77
2022/07/29 11:07:30;;;;;;;8.75;2.90;;;19.40;99.90;;;;;;6165092;23;20009;-77
2022/07/29 11:10:14;;;;;;;4.30;2.50;;;19.40;99.90;;;;;;6163613;23;20021;-78
2022/07/29 11:12:42;;;;;;;8.30;2.35;;;19.60;99.90;;;;;;6162279;23;20176;-77
2022/07/29 11:15:20;;;;;;;3.00;2.35;;;19.40;99.90;;;;;;6187698;23;20040;-79
2022/07/29 11:17:52;;;;;;;3.08;2.10;;;19.50;99.90;;;;;;6164861;23;20009;-78
2022/07/29 11:20:41;;;;;;;4.78;2.30;;;19.90;99.90;;;;;;6165101;23;20024;-80
2022/07/29 11:23:23;;;;;;;7.65;2.58;;;20.10;99.90;;;;;;6188568;23;20044;-79
2022/07/29 11:26:21;;;;;;;5.95;2.65;;;20.10;99.90;;;;;;6189001;23;20198;-78
2022/07/29 11:29:00;;;;;;;4.38;2.63;;;19.80;99.90;;;;;;6189617;23;20056;-78
2022/07/29 11:31:35;;;;;;;4.85;2.60;;;20.10;99.90;;;;;;6189580;23;20017;-79
2022/07/29 11:34:35;;;;;;;3.53;2.75;;;20.10;99.90;;;;;;6165918;23;20013;-79
2022/07/29 11:37:14;;;;;;;4.32;2.97;;;20.20;99.90;;;;;;6166047;23;20012;-80
2022/07/29 11:39:44;;;;;;;2.88;2.22;;;20.20;99.90;;;;;;6191036;23;20009;-79
2022/07/29 11:42:25;;;;;;;4.40;2.60;;;20.30;99.90;;;;;;6166741;23;20023;-80
2022/07/29 11:45:00;;;;;;;3.45;2.30;;;20.30;99.90;;;;;;6166650;23;20048;-78
2022/07/29 11:47:27;;;;;;;5.90;2.38;;;20.40;99.90;;;;;;6193628;23;20119;-79
2022/07/29 11:49:57;;;;;;;4.90;2.85;;;20.60;99.90;;;;;;6193383;23;20012;-79
2022/07/29 11:52:31;;;;;;;5.07;2.10;;;21.00;99.90;;;;;;6169575;23;20021;-80
2022/07/29 11:55:00;;;;;;;17.67;3.10;;;21.10;99.90;;;;;;6168284;23;20211;-80
2022/07/29 11:57:27;;;;;;;5.38;2.80;;;21.10;99.90;;;;;;6145183;23;20009;-79
2022/07/29 11:59:55;;;;;;;5.28;2.45;;;21.60;99.90;;;;;;6168497;23;20199;-77
2022/07/29 12:02:23;;;;;;;3.45;2.30;;;22.00;99.90;;;;;;6143846;23;20009;-79
2022/07/29 12:04:56;;;;;;;3.17;2.13;;;22.20;99.90;;;;;;6166468;23;20021;-79
2022/07/29 12:07:34;;;;;;;3.92;2.17;;;22.40;99.90;;;;;;6193194;23;20013;-80
2022/07/29 12:10:10;;;;;;;3.88;2.08;;;22.50;99.90;;;;;;6168117;23;20025;-80
2022/07/29 12:12:52;;;;;;;4.60;2.30;;;23.10;99.90;;;;;;6144371;23;20060;-79
2022/07/29 12:15:36;;;;;;;2.97;1.95;;;22.80;99.90;;;;;;6168224;23;20021;-80
2022/07/29 12:18:15;;;;;;;4.22;2.50;;;23.10;99.90;;;;;;6192578;23;20020;-80
2022/07/29 12:21:03;;;;;;;3.75;2.22;;;22.90;99.90;;;;;;6142896;23;20017;-81
2022/07/29 12:23:31;;;;;;;6.35;2.53;;;22.90;99.90;;;;;;6143428;23;20036;-80
2022/07/29 12:26:00;;;;;;;4.88;2.70;;;22.80;99.90;;;;;;6190628;23;20016;-80
2022/07/29 12:31:36;;;;;;;3.78;2.20;;;23.00;99.90;;;;;;6147172;23;20017;-79
2022/07/29 12:34:02;;;;;;;6.78;2.13;;;23.10;99.90;;;;;;6143244;23;20028;-78
2022/07/29 12:36:44;;;;;;;3.85;2.25;;;23.10;99.90;;;;;;6168255;23;20072;-78
2022/07/29 12:39:18;;;;;;;7.47;2.50;;;22.90;99.90;;;;;;6119501;23;20508;-78
2022/07/29 12:41:44;;;;;;;5.40;2.33;;;23.10;99.90;;;;;;6143948;23;20001;-79
2022/07/29 12:44:16;;;;;;;5.57;2.10;;;23.30;99.90;;;;;;6165725;23;20014;-78
2022/07/29 12:47:04;;;;;;;4.78;2.20;;;23.10;99.90;;;;;;6167457;23;20105;-80
2022/07/29 12:49:36;;;;;;;5.25;2.15;;;23.30;99.90;;;;;;6168194;23;20019;-79
2022/07/29 12:52:59;;;;;;;3.95;2.38;;;23.10;99.90;;;;;;6167573;23;20076;-79
2022/07/29 12:55:52;;;;;;;4.35;2.10;;;23.40;99.90;;;;;;6112243;23;20193;-79
2022/07/29 12:58:53;;;;;;;4.30;2.20;;;23.50;99.90;;;;;;6192704;23;20325;-79
2022/07/29 13:01:58;;;;;;;;;;;;;;;;;;;;;
2022/07/29 13:04:41;;;;;;;4.78;2.15;;;23.40;99.90;;;;;;6195072;23;20013;-79
2022/07/29 13:07:07;;;;;;;6.10;2.30;;;23.50;99.90;;;;;;6168196;23;20035;-79
2022/07/29 13:13:10;;;;;;;3.67;2.05;;;23.80;99.90;;;;;;6140142;23;20017;-78
2022/07/29 13:16:15;;;;;;;4.35;2.25;;;24.30;99.90;;;;;;6188478;23;20326;-78